createdAt,value
2023-01-19T00:00:22.354Z,0.21
2023-01-19T00:02:49.114Z,0.39
2023-01-19T00:05:15.796Z,0.27
2023-01-19T00:07:42.324Z,0.25
2023-01-19T00:10:09.753Z,0.27
2023-01-19T00:12:36.284Z,0.22
2023-01-19T00:15:03.041Z,0.16
2023-01-19T00:17:29.615Z,0.20
2023-01-19T00:19:56.161Z,0.16
2023-01-19T00:22:22.726Z,0.19
2023-01-19T00:24:50.531Z,0.17
2023-01-19T00:27:17.065Z,0.19
2023-01-19T00:29:43.672Z,0.25
2023-01-19T00:32:10.198Z,0.25
2023-01-19T00:34:49.494Z,0.23
2023-01-19T00:37:17.354Z,0.28
2023-01-19T00:39:44.322Z,0.20
2023-01-19T00:42:32.676Z,0.17
2023-01-19T00:44:59.277Z,0.13
2023-01-19T00:47:25.885Z,0.26
2023-01-19T00:49:52.533Z,0.28
2023-01-19T00:55:40.753Z,0.18
2023-01-19T00:58:07.428Z,0.16
2023-01-19T01:00:33.985Z,0.13
2023-01-19T01:03:00.852Z,0.13
2023-01-19T01:05:27.836Z,0.16
2023-01-19T01:07:54.478Z,0.14
2023-01-19T01:10:22.952Z,0.26
2023-01-19T01:12:55.908Z,0.22
2023-01-19T01:15:36.397Z,0.15
2023-01-19T01:18:02.959Z,0.20
2023-01-19T01:20:30.578Z,0.23
2023-01-19T01:22:59.725Z,0.20
2023-01-19T01:25:27.842Z,0.17
2023-01-19T01:27:55.054Z,0.23
2023-01-19T01:30:21.706Z,0.22
2023-01-19T01:32:48.283Z,0.22
2023-01-19T01:35:15.632Z,0.21
2023-01-19T01:37:42.997Z,0.17
2023-01-19T01:40:11.761Z,0.17
2023-01-19T01:42:38.489Z,0.18
2023-01-19T01:45:07.661Z,0.23
2023-01-19T01:47:45.818Z,0.22
2023-01-19T01:50:20.818Z,0.33
2023-01-19T01:53:06.545Z,0.25
2023-01-19T01:55:36.889Z,0.22
2023-01-19T01:58:05.131Z,0.21
2023-01-19T02:00:52.053Z,0.18
2023-01-19T02:03:18.926Z,0.31
2023-01-19T02:05:45.817Z,0.28
2023-01-19T02:08:38.889Z,0.21
2023-01-19T02:11:24.881Z,0.14
2023-01-19T02:13:51.611Z,0.16
2023-01-19T02:16:18.219Z,0.13
2023-01-19T02:18:45.395Z,0.11
2023-01-19T02:21:21.635Z,0.07
2023-01-19T02:23:59.001Z,0.18
2023-01-19T02:26:27.486Z,0.13
2023-01-19T02:28:59.076Z,0.17
2023-01-19T02:31:26.265Z,0.14
2023-01-19T02:33:55.442Z,0.08
2023-01-19T02:36:26.048Z,0.09
2023-01-19T02:38:53.692Z,0.12
2023-01-19T02:41:21.441Z,0.12
2023-01-19T02:43:48.970Z,0.16
2023-01-19T02:46:15.912Z,0.14
2023-01-19T02:48:42.550Z,0.13
2023-01-19T02:51:14.357Z,0.23
2023-01-19T02:53:40.835Z,0.09
2023-01-19T02:56:16.420Z,0.16
2023-01-19T02:58:49.119Z,0.05
2023-01-19T03:01:15.796Z,0.04
2023-01-19T03:03:50.677Z,0.04
2023-01-19T03:06:32.466Z,0.05
2023-01-19T03:08:59.058Z,0.00
2023-01-19T03:11:29.767Z,0.02
2023-01-19T03:14:02.116Z,-0.02
2023-01-19T03:16:38.631Z,0.02
2023-01-19T03:19:09.592Z,-0.03
2023-01-19T03:21:37.381Z,0.03
2023-01-19T03:24:06.119Z,-0.08
2023-01-19T03:26:36.262Z,-0.07
2023-01-19T03:29:03.496Z,-0.04
2023-01-19T03:31:32.169Z,-0.09
2023-01-19T03:34:00.992Z,-0.11
2023-01-19T03:36:31.276Z,-0.13
2023-01-19T03:38:58.524Z,-0.13
2023-01-19T03:41:26.115Z,-0.12
2023-01-19T03:43:53.718Z,-0.14
2023-01-19T03:46:20.942Z,-0.20
2023-01-19T03:48:48.088Z,-0.14
2023-01-19T03:51:15.955Z,-0.05
2023-01-19T03:53:43.161Z,-0.18
2023-01-19T03:56:16.848Z,-0.19
2023-01-19T03:58:43.455Z,-0.17
2023-01-19T04:01:10.106Z,-0.17
2023-01-19T04:03:36.974Z,-0.20
2023-01-19T04:06:03.598Z,-0.17
2023-01-19T04:08:30.152Z,-0.17
2023-01-19T04:10:57.505Z,-0.16
2023-01-19T04:13:24.040Z,-0.21
2023-01-19T04:15:50.621Z,-0.22
2023-01-19T04:18:17.155Z,-0.21
2023-01-19T04:20:43.715Z,-0.19
2023-01-19T04:23:10.231Z,-0.12
2023-01-19T04:25:38.141Z,-0.13
2023-01-19T04:28:05.529Z,-0.26
2023-01-19T04:30:32.039Z,-0.26
2023-01-19T04:33:02.230Z,-0.28
2023-01-19T04:35:29.045Z,-0.26
2023-01-19T04:37:55.659Z,-0.19
2023-01-19T04:40:22.272Z,-0.25
2023-01-19T04:42:48.808Z,-0.22
2023-01-19T04:45:15.365Z,-0.24
2023-01-19T04:47:42.839Z,-0.32
2023-01-19T04:50:10.555Z,-0.33
2023-01-19T04:52:37.155Z,-0.32
2023-01-19T04:55:07.000Z,-0.28
2023-01-19T04:57:33.648Z,-0.20
2023-01-19T05:00:00.204Z,-0.26
2023-01-19T05:02:26.794Z,-0.26
2023-01-19T05:04:53.447Z,-0.29
2023-01-19T05:07:19.995Z,-0.34
2023-01-19T05:09:46.530Z,-0.28
2023-01-19T05:12:13.019Z,-0.25
2023-01-19T05:14:39.557Z,-0.37
2023-01-19T05:17:06.127Z,-0.38
2023-01-19T05:19:32.699Z,-0.45
2023-01-19T05:21:59.232Z,-0.38
2023-01-19T05:24:25.777Z,-0.36
2023-01-19T05:26:52.338Z,-0.37
2023-01-19T05:29:18.873Z,-0.37
2023-01-19T05:31:45.463Z,-0.40
2023-01-19T05:34:12.439Z,-0.37
2023-01-19T05:36:38.953Z,-0.37
2023-01-19T05:39:05.556Z,-0.43
2023-01-19T05:41:32.408Z,-0.43
2023-01-19T05:43:58.997Z,-0.36
2023-01-19T05:46:25.600Z,-0.44
2023-01-19T05:48:52.242Z,-0.45
2023-01-19T05:51:18.926Z,-0.36
2023-01-19T05:53:45.485Z,-0.28
2023-01-19T05:56:12.204Z,-0.42
2023-01-19T05:58:42.325Z,-0.48
2023-01-19T06:01:09.810Z,-0.42
2023-01-19T06:03:37.124Z,-0.36
2023-01-19T06:06:04.171Z,-0.41
2023-01-19T06:08:30.719Z,-0.37
2023-01-19T06:10:57.365Z,-0.42
2023-01-19T06:13:23.860Z,-0.53
2023-01-19T06:15:56.118Z,-0.55
2023-01-19T06:18:22.619Z,-0.58
2023-01-19T06:20:49.203Z,-0.56
2023-01-19T06:23:15.788Z,-0.61
2023-01-19T06:25:42.312Z,-0.61
2023-01-19T06:28:08.858Z,-0.61
2023-01-19T06:30:35.485Z,-0.54
2023-01-19T06:33:02.450Z,-0.59
2023-01-19T06:35:29.483Z,-0.59
2023-01-19T06:37:56.013Z,-0.61
2023-01-19T06:40:22.895Z,-0.58
2023-01-19T06:42:49.814Z,-0.52
2023-01-19T06:45:16.503Z,-0.57
2023-01-19T06:47:43.058Z,-0.61
2023-01-19T06:50:09.887Z,-0.62
2023-01-19T06:52:42.433Z,-0.56
2023-01-19T06:55:12.580Z,-0.63
2023-01-19T06:57:39.296Z,-0.47
2023-01-19T07:00:08.236Z,-0.47
2023-01-19T07:02:35.741Z,-0.58
2023-01-19T07:05:02.421Z,-0.55
2023-01-19T07:07:29.012Z,-0.44
2023-01-19T07:09:55.701Z,-0.62
2023-01-19T07:12:23.122Z,-0.61
2023-01-19T07:14:49.873Z,-0.35
2023-01-19T07:17:16.490Z,-0.55
2023-01-19T07:19:43.086Z,-0.57
2023-01-19T07:22:09.637Z,-0.55
2023-01-19T07:24:38.072Z,-0.63
2023-01-19T07:27:05.466Z,-0.64
2023-01-19T07:29:32.009Z,-0.60
2023-01-19T07:31:58.733Z,-0.55
2023-01-19T07:34:25.330Z,-0.48
2023-01-19T07:36:51.881Z,-0.42
2023-01-19T07:39:18.437Z,-0.44
2023-01-19T07:41:44.996Z,-0.44
2023-01-19T07:44:11.532Z,-0.47
2023-01-19T07:46:38.098Z,-0.46
2023-01-19T07:49:04.898Z,-0.23
2023-01-19T07:51:31.437Z,-0.35
2023-01-19T07:53:58.476Z,-0.34
2023-01-19T07:56:26.245Z,-0.39
2023-01-19T07:58:53.033Z,-0.40
2023-01-19T08:01:19.804Z,-0.25
2023-01-19T08:03:48.093Z,-0.42
2023-01-19T08:06:26.585Z,-0.39
2023-01-19T08:08:53.285Z,-0.43
2023-01-19T08:11:19.837Z,-0.45
2023-01-19T08:13:46.401Z,-0.30
2023-01-19T08:16:13.044Z,-0.31
2023-01-19T08:18:39.729Z,-0.36
2023-01-19T08:21:06.414Z,-0.38
2023-01-19T08:23:33.004Z,-0.33
2023-01-19T08:25:59.535Z,-0.37
2023-01-19T08:28:26.280Z,-0.31
2023-01-19T08:30:55.685Z,-0.13
2023-01-19T08:33:23.240Z,-0.11
2023-01-19T08:35:51.420Z,-0.08
2023-01-19T08:38:18.455Z,-0.07
2023-01-19T08:40:45.495Z,-0.01
2023-01-19T08:43:16.437Z,-0.01
2023-01-19T08:45:48.292Z,-0.03
2023-01-19T08:48:15.778Z,0.08
2023-01-19T08:50:42.401Z,0.12
2023-01-19T08:53:10.163Z,0.07
2023-01-19T08:55:37.217Z,0.22
2023-01-19T08:58:04.672Z,0.16
2023-01-19T09:00:33.719Z,0.22
2023-01-19T09:03:03.631Z,0.24
2023-01-19T09:05:38.809Z,0.22
2023-01-19T09:08:08.220Z,0.19
2023-01-19T09:10:38.128Z,0.25
2023-01-19T09:13:10.900Z,0.23
2023-01-19T09:15:38.320Z,0.31
2023-01-19T09:18:06.162Z,0.32
2023-01-19T09:20:34.752Z,0.29
2023-01-19T09:23:01.329Z,0.47
2023-01-19T09:25:27.913Z,0.51
2023-01-19T09:27:56.187Z,0.48
2023-01-19T09:30:22.757Z,0.54
2023-01-19T09:32:49.358Z,0.69
2023-01-19T09:35:16.023Z,0.69
2023-01-19T09:37:45.798Z,0.79
2023-01-19T09:40:12.648Z,0.83
2023-01-19T09:42:46.472Z,0.94
2023-01-19T09:45:33.347Z,0.94
2023-01-19T09:48:01.623Z,1.09
2023-01-19T09:50:32.102Z,1.17
2023-01-19T09:53:03.139Z,1.10
2023-01-19T09:55:30.735Z,1.12
2023-01-19T09:57:57.304Z,1.11
2023-01-19T10:00:24.677Z,1.05
2023-01-19T10:02:56.049Z,1.04
2023-01-19T10:05:45.998Z,1.04
2023-01-19T10:08:31.903Z,1.12
2023-01-19T10:10:58.697Z,1.06
2023-01-19T10:13:25.353Z,1.05
2023-01-19T10:15:52.568Z,1.07
2023-01-19T10:18:22.692Z,1.06
2023-01-19T10:20:50.098Z,1.00
2023-01-19T10:23:48.781Z,0.97
2023-01-19T10:26:18.099Z,0.93
2023-01-19T10:28:46.972Z,0.95
2023-01-19T10:31:13.855Z,0.98
2023-01-19T10:33:40.527Z,0.94
2023-01-19T10:36:16.693Z,0.99
2023-01-19T10:38:43.801Z,0.96
2023-01-19T10:41:17.736Z,1.00
2023-01-19T10:43:45.759Z,0.91
2023-01-19T10:46:18.578Z,0.84
2023-01-19T10:48:47.932Z,0.80
2023-01-19T10:51:14.554Z,0.81
2023-01-19T10:53:43.231Z,0.91
2023-01-19T10:56:12.702Z,0.86
2023-01-19T10:58:40.554Z,0.82
2023-01-19T11:01:14.861Z,0.86
2023-01-19T11:03:41.685Z,0.87
2023-01-19T11:06:14.792Z,0.87
2023-01-19T11:08:42.212Z,0.86
2023-01-19T11:11:09.249Z,0.83
2023-01-19T11:13:36.295Z,0.87
2023-01-19T11:16:14.954Z,0.84
2023-01-19T11:18:43.124Z,0.82
2023-01-19T11:21:11.765Z,0.80
2023-01-19T11:23:44.967Z,0.83
2023-01-19T11:26:16.476Z,0.86
2023-01-19T11:28:46.434Z,0.81
2023-01-19T11:31:16.141Z,0.82
2023-01-19T11:33:42.705Z,0.81
2023-01-19T11:36:23.240Z,0.82
2023-01-19T11:38:54.623Z,0.80
2023-01-19T11:41:22.767Z,0.74
2023-01-19T11:43:52.171Z,0.67
2023-01-19T11:46:19.173Z,0.61
2023-01-19T11:48:57.531Z,0.59
2023-01-19T11:51:27.308Z,0.58
2023-01-19T11:53:54.004Z,0.55
2023-01-19T11:56:23.894Z,0.63
2023-01-19T11:58:50.458Z,0.60
2023-01-19T12:01:17.055Z,0.58
2023-01-19T12:03:46.813Z,0.57
2023-01-19T12:06:20.473Z,0.63
2023-01-19T12:08:58.783Z,0.63
2023-01-19T12:11:30.277Z,0.64
2023-01-19T12:13:56.797Z,0.64
2023-01-19T12:16:26.564Z,0.68
2023-01-19T12:18:56.177Z,0.77
2023-01-19T12:21:22.802Z,0.78
2023-01-19T12:23:49.377Z,0.75
2023-01-19T12:26:15.954Z,0.66
2023-01-19T12:28:44.563Z,0.66
2023-01-19T12:31:15.663Z,0.63
2023-01-19T12:33:42.400Z,0.65
2023-01-19T12:36:27.769Z,0.69
2023-01-19T12:38:55.682Z,0.57
2023-01-19T12:41:25.196Z,0.55
2023-01-19T12:44:09.876Z,0.55
2023-01-19T12:46:38.243Z,0.59
2023-01-19T12:49:14.456Z,0.59
2023-01-19T12:51:41.348Z,0.57
2023-01-19T12:54:08.922Z,0.61
2023-01-19T12:56:37.158Z,0.66
2023-01-19T12:59:04.340Z,0.78
2023-01-19T13:01:31.321Z,0.78
2023-01-19T13:04:03.730Z,0.78
2023-01-19T13:06:49.100Z,0.80
2023-01-19T13:09:44.979Z,0.79
2023-01-19T13:12:14.679Z,0.80
2023-01-19T13:14:42.486Z,0.81
2023-01-19T13:17:24.783Z,0.88
2023-01-19T13:20:17.608Z,0.87
2023-01-19T13:22:49.695Z,0.81
2023-01-19T13:25:28.525Z,0.87
2023-01-19T13:27:56.085Z,0.92
2023-01-19T13:30:27.053Z,1.05
2023-01-19T13:33:00.200Z,1.11
2023-01-19T13:35:26.812Z,1.16
2023-01-19T13:37:54.076Z,1.12
2023-01-19T13:40:22.868Z,1.08
2023-01-19T13:42:50.298Z,1.08
2023-01-19T13:45:16.877Z,1.08
2023-01-19T13:47:45.482Z,1.13
2023-01-19T13:50:23.471Z,1.16
2023-01-19T13:52:51.455Z,1.15
2023-01-19T13:55:18.836Z,1.15
2023-01-19T13:57:46.005Z,1.15
2023-01-19T14:00:12.875Z,1.13
2023-01-19T14:02:40.240Z,1.23
2023-01-19T14:05:14.520Z,1.15
2023-01-19T14:07:41.232Z,1.11
2023-01-19T14:10:12.685Z,1.06
2023-01-19T14:12:51.154Z,1.14
2023-01-19T14:15:24.857Z,1.12
2023-01-19T14:18:10.318Z,1.14
2023-01-19T14:20:37.288Z,1.16
2023-01-19T14:23:04.614Z,1.08
2023-01-19T14:25:35.366Z,1.06
2023-01-19T14:28:20.478Z,1.00
2023-01-19T14:30:57.170Z,1.03
2023-01-19T14:33:40.082Z,1.09
2023-01-19T14:36:25.481Z,1.02
2023-01-19T14:38:52.779Z,0.95
2023-01-19T14:41:24.236Z,0.93
2023-01-19T14:43:50.818Z,0.93
2023-01-19T14:46:18.669Z,0.91
2023-01-19T14:48:49.058Z,0.85
2023-01-19T14:51:18.209Z,0.78
2023-01-19T14:53:50.615Z,0.87
2023-01-19T14:56:27.410Z,1.01
2023-01-19T14:58:54.911Z,0.84
2023-01-19T15:01:21.528Z,0.77
2023-01-19T15:03:48.157Z,0.71
2023-01-19T15:06:16.529Z,0.57
2023-01-19T15:08:43.866Z,0.57
2023-01-19T15:11:16.522Z,0.58
2023-01-19T15:13:44.360Z,0.66
2023-01-19T15:16:10.970Z,0.61
2023-01-19T15:18:38.551Z,0.58
2023-01-19T15:21:05.278Z,0.52
2023-01-19T15:23:32.483Z,0.60
2023-01-19T15:26:02.931Z,0.50
2023-01-19T15:28:29.718Z,0.46
2023-01-19T15:30:57.755Z,0.45
2023-01-19T15:33:26.035Z,0.39
2023-01-19T15:35:53.403Z,0.37
2023-01-19T15:38:20.003Z,0.32
2023-01-19T15:40:51.199Z,0.23
2023-01-19T15:43:18.116Z,0.12
2023-01-19T15:45:44.712Z,0.18
2023-01-19T15:48:11.877Z,0.11
2023-01-19T15:50:40.362Z,0.08
2023-01-19T15:53:07.737Z,0.07
2023-01-19T15:55:34.380Z,0.10
2023-01-19T15:58:03.617Z,0.07
2023-01-19T16:00:33.929Z,-0.01
2023-01-19T16:03:01.380Z,0.04
2023-01-19T16:05:41.783Z,-0.01
2023-01-19T16:08:09.164Z,-0.05
2023-01-19T16:10:35.735Z,-0.11
2023-01-19T16:13:03.638Z,-0.11
2023-01-19T16:15:30.170Z,-0.15
2023-01-19T16:17:56.716Z,-0.17
2023-01-19T16:20:23.358Z,-0.18
2023-01-19T16:22:49.892Z,-0.19
2023-01-19T16:25:16.472Z,-0.30
2023-01-19T16:27:43.289Z,-0.32
2023-01-19T16:30:11.955Z,-0.27
2023-01-19T16:32:38.959Z,-0.29
2023-01-19T16:35:05.729Z,-0.38
2023-01-19T16:37:32.283Z,-0.42
2023-01-19T16:39:58.880Z,-0.45
2023-01-19T16:42:25.570Z,-0.54
2023-01-19T16:44:52.256Z,-0.58
2023-01-19T16:47:18.887Z,-0.63
2023-01-19T16:49:45.488Z,-0.67
2023-01-19T16:52:12.059Z,-0.71
2023-01-19T16:54:41.201Z,-0.79
2023-01-19T16:57:07.709Z,-0.80
2023-01-19T16:59:34.272Z,-0.87
2023-01-19T17:02:00.903Z,-0.96
2023-01-19T17:04:27.611Z,-0.93
2023-01-19T17:06:54.918Z,-0.91
2023-01-19T17:09:21.517Z,-0.91
2023-01-19T17:11:48.142Z,-1.00
2023-01-19T17:14:16.344Z,-1.12
2023-01-19T17:16:43.723Z,-1.14
2023-01-19T17:19:13.159Z,-1.09
2023-01-19T17:21:39.688Z,-1.07
2023-01-19T17:24:06.362Z,-0.94
2023-01-19T17:26:32.919Z,-1.03
2023-01-19T17:29:04.040Z,-1.19
2023-01-19T17:31:32.168Z,-1.18
2023-01-19T17:33:59.234Z,-1.14
2023-01-19T17:36:27.692Z,-1.11
2023-01-19T17:38:55.836Z,-1.13
2023-01-19T17:41:24.278Z,-1.09
2023-01-19T17:43:51.485Z,-1.11
2023-01-19T17:46:19.026Z,-1.15
2023-01-19T17:48:45.632Z,-1.18
2023-01-19T17:51:13.011Z,-1.20
2023-01-19T17:53:40.636Z,-1.19
2023-01-19T17:56:09.154Z,-1.18
2023-01-19T17:58:35.732Z,-1.14
2023-01-19T18:01:12.908Z,-1.15
2023-01-19T18:03:39.918Z,-1.16
2023-01-19T18:06:07.236Z,-1.13
2023-01-19T18:08:34.798Z,-1.16
2023-01-19T18:11:01.831Z,-1.24
2023-01-19T18:13:29.009Z,-1.24
2023-01-19T18:16:15.437Z,-1.27
2023-01-19T18:18:42.409Z,-1.33
2023-01-19T18:21:10.273Z,-1.39
2023-01-19T18:23:37.275Z,-1.41
2023-01-19T18:26:05.567Z,-1.47
2023-01-19T18:28:32.294Z,-1.47
2023-01-19T18:30:59.110Z,-1.55
2023-01-19T18:33:25.759Z,-1.60
2023-01-19T18:35:52.321Z,-1.63
2023-01-19T18:38:18.901Z,-1.71
2023-01-19T18:40:45.557Z,-1.76
2023-01-19T18:43:12.797Z,-1.79
2023-01-19T18:45:41.905Z,-1.84
2023-01-19T18:48:08.934Z,-1.86
2023-01-19T18:50:35.501Z,-1.90
2023-01-19T18:53:02.064Z,-1.96
2023-01-19T18:55:28.715Z,-1.98
2023-01-19T18:57:55.221Z,-1.98
2023-01-19T19:00:21.956Z,-2.07
2023-01-19T19:02:48.490Z,-2.13
2023-01-19T19:05:15.098Z,-2.18
2023-01-19T19:07:42.403Z,-2.14
2023-01-19T19:10:09.484Z,-1.97
2023-01-19T19:12:36.060Z,-1.90
2023-01-19T19:15:02.648Z,-1.83
2023-01-19T19:17:29.238Z,-1.82
2023-01-19T19:19:55.888Z,-1.81
2023-01-19T19:22:24.202Z,-1.85
2023-01-19T19:24:52.059Z,-1.86
2023-01-19T19:27:18.743Z,-1.90
2023-01-19T19:29:48.921Z,-1.88
2023-01-19T19:32:20.570Z,-1.86
2023-01-19T19:34:50.693Z,-1.84
2023-01-19T19:37:17.236Z,-1.86
2023-01-19T19:39:44.011Z,-1.90
2023-01-19T19:42:11.036Z,-1.88
2023-01-19T19:44:37.612Z,-1.90
2023-01-19T19:47:04.342Z,-1.83
2023-01-19T19:49:30.977Z,-1.88
2023-01-19T19:51:57.610Z,-1.88
2023-01-19T19:54:24.206Z,-1.83
2023-01-19T19:56:52.194Z,-1.80
2023-01-19T19:59:18.714Z,-1.77
2023-01-19T20:01:47.215Z,-1.75
2023-01-19T20:04:14.129Z,-1.71
2023-01-19T20:06:42.564Z,-1.69
2023-01-19T20:09:10.509Z,-1.68
2023-01-19T20:11:37.312Z,-1.65
2023-01-19T20:14:07.457Z,-1.63
2023-01-19T20:16:34.491Z,-1.56
2023-01-19T20:19:01.046Z,-1.56
2023-01-19T20:21:29.239Z,-1.56
2023-01-19T20:23:56.619Z,-1.60
2023-01-19T20:26:27.609Z,-1.61
2023-01-19T20:28:56.745Z,-1.60
2023-01-19T20:31:28.349Z,-1.57
2023-01-19T20:33:56.340Z,-1.60
2023-01-19T20:36:24.417Z,-1.58
2023-01-19T20:38:54.296Z,-1.60
2023-01-19T20:41:22.000Z,-1.61
2023-01-19T20:43:48.940Z,-1.60
2023-01-19T20:46:15.452Z,-1.59
2023-01-19T20:48:41.922Z,-1.56
2023-01-19T20:51:10.309Z,-1.55
2023-01-19T20:53:37.828Z,-1.54
2023-01-19T20:56:06.236Z,-1.54
2023-01-19T20:58:33.204Z,-1.56
2023-01-19T21:00:59.969Z,-1.56
2023-01-19T21:03:26.521Z,-1.58
2023-01-19T21:05:53.022Z,-1.59
2023-01-19T21:08:19.743Z,-1.61
2023-01-19T21:10:46.308Z,-1.60
2023-01-19T21:13:12.812Z,-1.61
2023-01-19T21:15:39.327Z,-1.60
2023-01-19T21:18:05.912Z,-1.57
2023-01-19T21:20:33.079Z,-1.56
2023-01-19T21:22:59.609Z,-1.55
2023-01-19T21:25:26.148Z,-1.59
2023-01-19T21:27:52.694Z,-1.55
2023-01-19T21:30:19.305Z,-1.64
2023-01-19T21:32:45.798Z,-1.63
2023-01-19T21:35:12.557Z,-1.61
2023-01-19T21:37:39.187Z,-1.56
2023-01-19T21:40:06.207Z,-1.60
2023-01-19T21:42:32.748Z,-1.64
2023-01-19T21:44:59.256Z,-1.68
2023-01-19T21:47:25.802Z,-1.70
2023-01-19T21:49:52.313Z,-1.70
2023-01-19T21:52:18.814Z,-1.72
2023-01-19T21:54:45.277Z,-1.74
2023-01-19T21:57:15.189Z,-1.74
2023-01-19T21:59:41.717Z,-1.75
2023-01-19T22:02:10.890Z,-1.72
2023-01-19T22:04:37.480Z,-1.75
2023-01-19T22:07:04.220Z,-1.77
2023-01-19T22:09:33.013Z,-1.79
2023-01-19T22:11:59.484Z,-1.86
2023-01-19T22:14:26.061Z,-1.88
2023-01-19T22:16:53.038Z,-1.84
2023-01-19T22:19:20.558Z,-1.87
2023-01-19T22:21:47.026Z,-1.86
2023-01-19T22:24:13.636Z,-1.76
2023-01-19T22:26:40.246Z,-1.80
2023-01-19T22:29:11.123Z,-1.85
2023-01-19T22:31:39.091Z,-1.88
2023-01-19T22:34:10.219Z,-1.91
2023-01-19T22:36:37.868Z,-1.96
2023-01-19T22:39:08.933Z,-1.91
2023-01-19T22:41:37.799Z,-1.89
2023-01-19T22:44:05.609Z,-1.93
2023-01-19T22:46:33.106Z,-1.97
2023-01-19T22:49:00.089Z,-1.97
2023-01-19T22:51:27.136Z,-1.98
2023-01-19T22:53:53.765Z,-1.98
2023-01-19T22:56:24.020Z,-1.98
2023-01-19T22:58:51.107Z,-1.99
2023-01-19T23:01:19.272Z,-1.92
2023-01-19T23:03:45.864Z,-1.95
2023-01-19T23:06:13.820Z,-1.90
2023-01-19T23:08:41.588Z,-1.93
2023-01-19T23:11:12.721Z,-1.99
2023-01-19T23:13:39.196Z,-1.98
2023-01-19T23:16:06.216Z,-1.84
2023-01-19T23:18:32.736Z,-1.79
2023-01-19T23:21:18.688Z,-1.79
2023-01-19T23:23:45.767Z,-1.88
2023-01-19T23:26:13.418Z,-1.95
2023-01-19T23:28:40.481Z,-1.78
2023-01-19T23:31:23.593Z,-1.83
2023-01-19T23:33:51.183Z,-1.89
2023-01-19T23:36:18.686Z,-1.89
2023-01-19T23:38:49.197Z,-1.92
2023-01-19T23:41:15.844Z,-1.90
2023-01-19T23:43:42.345Z,-1.91
2023-01-19T23:46:10.005Z,-1.83
2023-01-19T23:48:36.622Z,-1.87
2023-01-19T23:51:10.397Z,-1.83
2023-01-19T23:53:37.811Z,-1.90
2023-01-19T23:56:15.333Z,-2.04
2023-01-19T23:58:41.963Z,-2.10
